createdAt,value
2023-01-15T00:01:45.031Z,0.90
2023-01-15T00:04:12.177Z,0.85
2023-01-15T00:06:40.980Z,0.60
2023-01-15T00:09:08.712Z,0.80
2023-01-15T00:11:35.099Z,1.10
2023-01-15T00:14:01.566Z,0.80
2023-01-15T00:16:28.190Z,1.73
2023-01-15T00:18:57.038Z,1.00
2023-01-15T00:21:24.690Z,1.10
2023-01-15T00:24:17.331Z,0.50
2023-01-15T00:27:02.745Z,1.30
2023-01-15T00:29:29.195Z,0.68
2023-01-15T00:32:04.106Z,0.63
2023-01-15T00:34:31.068Z,0.90
2023-01-15T00:36:58.047Z,0.60
2023-01-15T00:39:25.349Z,1.35
2023-01-15T00:41:52.114Z,1.55
2023-01-15T00:44:19.080Z,1.33
2023-01-15T00:46:45.596Z,1.20
2023-01-15T00:49:12.244Z,1.20
2023-01-15T00:51:38.624Z,0.70
2023-01-15T00:54:05.398Z,1.00
2023-01-15T00:56:31.972Z,0.90
2023-01-15T00:59:01.324Z,0.70
2023-01-15T01:01:27.842Z,1.27
2023-01-15T01:03:54.295Z,0.90
2023-01-15T01:06:21.488Z,0.88
2023-01-15T01:08:48.585Z,1.53
2023-01-15T01:11:19.115Z,1.10
2023-01-15T01:13:46.050Z,0.73
2023-01-15T01:16:40.355Z,0.85
2023-01-15T01:19:10.214Z,1.15
2023-01-15T01:21:38.757Z,0.93
2023-01-15T01:24:06.702Z,1.17
2023-01-15T01:26:33.569Z,1.10
2023-01-15T01:28:59.985Z,1.30
2023-01-15T01:31:26.678Z,1.25
2023-01-15T01:33:55.589Z,0.70
2023-01-15T01:36:28.174Z,0.90
2023-01-15T01:38:54.585Z,1.20
2023-01-15T01:41:20.978Z,0.80
2023-01-15T01:44:01.451Z,1.17
2023-01-15T01:46:30.202Z,1.13
2023-01-15T01:49:04.746Z,2.08
2023-01-15T01:51:43.273Z,1.00
2023-01-15T01:54:12.424Z,0.75
2023-01-15T01:56:38.897Z,1.02
2023-01-15T01:59:07.532Z,1.00
2023-01-15T02:01:34.663Z,0.80
2023-01-15T02:04:02.171Z,0.98
2023-01-15T02:06:29.418Z,0.80
2023-01-15T02:08:56.271Z,1.20
2023-01-15T02:11:24.069Z,1.13
2023-01-15T02:14:02.333Z,0.90
2023-01-15T02:16:48.719Z,1.30
2023-01-15T02:19:45.792Z,1.13
2023-01-15T02:22:37.725Z,1.05
2023-01-15T02:25:17.320Z,1.17
2023-01-15T02:27:49.160Z,0.90
2023-01-15T02:30:28.436Z,1.30
2023-01-15T02:33:26.597Z,0.93
2023-01-15T02:36:00.921Z,0.85
2023-01-15T02:38:33.744Z,0.80
2023-01-15T02:41:02.356Z,1.40
2023-01-15T02:43:35.339Z,0.75
2023-01-15T02:46:04.227Z,0.88
2023-01-15T02:48:35.079Z,1.10
2023-01-15T02:51:11.475Z,1.07
2023-01-15T02:53:41.808Z,1.20
2023-01-15T02:56:13.197Z,0.70
2023-01-15T02:58:42.453Z,1.13
2023-01-15T03:01:17.583Z,1.20
2023-01-15T03:03:57.901Z,0.90
2023-01-15T03:06:39.027Z,0.80
2023-01-15T03:09:07.420Z,0.80
2023-01-15T03:11:40.036Z,0.90
2023-01-15T03:14:14.340Z,1.15
2023-01-15T03:16:47.503Z,0.93
2023-01-15T03:20:03.467Z,0.90
2023-01-15T03:22:35.896Z,1.00
2023-01-15T03:25:13.676Z,1.80
2023-01-15T03:27:40.191Z,0.90
2023-01-15T03:30:13.259Z,1.27
2023-01-15T03:32:39.819Z,0.75
2023-01-15T03:35:43.843Z,1.33
2023-01-15T03:38:12.211Z,1.17
2023-01-15T03:40:49.450Z,1.02
2023-01-15T03:43:36.944Z,1.37
2023-01-15T03:46:16.089Z,1.00
2023-01-15T03:48:51.810Z,1.10
2023-01-15T03:51:23.451Z,1.02
2023-01-15T03:53:54.979Z,1.13
2023-01-15T03:56:42.830Z,0.90
2023-01-15T03:59:13.615Z,1.48
2023-01-15T04:01:42.959Z,0.82
2023-01-15T04:04:11.051Z,1.50
2023-01-15T04:06:39.922Z,1.20
2023-01-15T04:09:08.979Z,1.30
2023-01-15T04:11:35.650Z,1.00
2023-01-15T04:14:02.041Z,1.10
2023-01-15T04:16:31.807Z,1.30
2023-01-15T04:18:58.917Z,1.48
2023-01-15T04:21:26.206Z,1.10
2023-01-15T04:23:52.594Z,1.17
2023-01-15T04:26:19.049Z,1.10
2023-01-15T04:28:45.456Z,0.90
2023-01-15T04:31:11.851Z,1.00
2023-01-15T04:33:39.972Z,1.20
2023-01-15T04:36:07.334Z,1.38
2023-01-15T04:38:33.796Z,0.80
2023-01-15T04:41:20.568Z,1.20
2023-01-15T04:44:05.911Z,1.00
2023-01-15T04:46:34.076Z,0.90
2023-01-15T04:49:00.834Z,0.80
2023-01-15T04:51:27.276Z,1.00
2023-01-15T04:53:54.007Z,1.08
2023-01-15T04:56:20.514Z,1.10
2023-01-15T04:58:46.887Z,1.10
2023-01-15T05:01:15.156Z,1.35
2023-01-15T05:03:43.292Z,1.30
2023-01-15T05:06:10.125Z,1.50
2023-01-15T05:08:37.056Z,1.45
2023-01-15T05:11:04.970Z,0.93
2023-01-15T05:13:33.318Z,1.25
2023-01-15T05:16:12.300Z,1.00
2023-01-15T05:18:39.362Z,0.85
2023-01-15T05:21:06.039Z,1.00
2023-01-15T05:23:32.442Z,0.87
2023-01-15T05:26:02.137Z,0.82
2023-01-15T05:28:28.564Z,1.08
2023-01-15T05:30:55.013Z,1.17
2023-01-15T05:33:21.441Z,1.40
2023-01-15T05:35:47.826Z,1.30
2023-01-15T05:38:14.210Z,1.30
2023-01-15T05:40:40.594Z,1.25
2023-01-15T05:43:06.966Z,1.25
2023-01-15T05:45:36.038Z,1.10
2023-01-15T05:48:02.412Z,1.00
2023-01-15T05:50:29.141Z,1.30
2023-01-15T05:52:55.562Z,1.45
2023-01-15T05:55:21.931Z,1.10
2023-01-15T05:57:49.157Z,1.00
2023-01-15T06:00:15.945Z,0.80
2023-01-15T06:02:42.286Z,2.42
2023-01-15T06:05:08.898Z,1.10
2023-01-15T06:07:35.305Z,1.00
2023-01-15T06:10:01.698Z,1.60
2023-01-15T06:12:28.070Z,1.03
2023-01-15T06:14:54.519Z,0.77
2023-01-15T06:17:20.943Z,1.35
2023-01-15T06:19:47.312Z,1.20
2023-01-15T06:22:13.767Z,1.20
2023-01-15T06:24:40.157Z,0.77
2023-01-15T06:27:06.623Z,1.17
2023-01-15T06:29:33.114Z,1.45
2023-01-15T06:31:59.530Z,0.82
2023-01-15T06:34:25.894Z,1.05
2023-01-15T06:36:52.282Z,1.00
2023-01-15T06:39:18.662Z,1.35
2023-01-15T06:42:03.808Z,1.30
2023-01-15T06:44:48.686Z,0.88
2023-01-15T06:47:20.794Z,0.70
2023-01-15T06:49:49.486Z,1.00
2023-01-15T06:52:15.836Z,0.93
2023-01-15T06:54:42.218Z,0.93
2023-01-15T06:57:08.682Z,0.90
2023-01-15T06:59:35.242Z,0.65
2023-01-15T07:02:02.031Z,1.23
2023-01-15T07:04:28.636Z,1.00
2023-01-15T07:06:55.006Z,0.63
2023-01-15T07:09:21.411Z,1.23
2023-01-15T07:11:50.471Z,0.95
2023-01-15T07:14:22.456Z,0.83
2023-01-15T07:16:49.584Z,0.90
2023-01-15T07:19:16.630Z,0.75
2023-01-15T07:21:43.072Z,0.90
2023-01-15T07:24:10.997Z,0.90
2023-01-15T07:26:37.795Z,1.50
2023-01-15T07:29:04.388Z,1.00
2023-01-15T07:31:30.777Z,0.80
2023-01-15T07:33:57.728Z,0.90
2023-01-15T07:36:25.238Z,1.05
2023-01-15T07:38:51.952Z,1.77
2023-01-15T07:41:37.204Z,1.38
2023-01-15T07:44:22.344Z,0.60
2023-01-15T07:47:07.168Z,0.80
2023-01-15T07:49:45.543Z,0.95
2023-01-15T07:52:19.387Z,1.00
2023-01-15T07:54:46.938Z,1.20
2023-01-15T07:57:16.407Z,0.68
2023-01-15T07:59:42.889Z,0.70
2023-01-15T08:02:09.371Z,0.73
2023-01-15T08:04:36.513Z,0.83
2023-01-15T08:07:04.302Z,1.00
2023-01-15T08:09:31.222Z,0.70
2023-01-15T08:12:20.128Z,0.77
2023-01-15T08:15:05.401Z,0.70
2023-01-15T08:17:36.295Z,0.83
2023-01-15T08:20:05.029Z,1.05
2023-01-15T08:22:31.453Z,0.90
2023-01-15T08:24:58.027Z,1.13
2023-01-15T08:27:24.511Z,0.82
2023-01-15T08:29:51.337Z,0.90
2023-01-15T08:32:17.736Z,0.65
2023-01-15T08:34:44.110Z,0.98
2023-01-15T08:37:10.652Z,0.98
2023-01-15T08:39:37.142Z,0.57
2023-01-15T08:42:03.697Z,0.70
2023-01-15T08:44:30.151Z,0.93
2023-01-15T08:46:59.389Z,0.98
2023-01-15T08:49:25.852Z,0.70
2023-01-15T08:51:52.892Z,0.60
2023-01-15T08:54:21.169Z,0.83
2023-01-15T08:56:48.433Z,0.90
2023-01-15T08:59:14.969Z,0.70
2023-01-15T09:01:42.128Z,1.05
2023-01-15T09:04:13.696Z,0.88
2023-01-15T09:06:40.087Z,0.57
2023-01-15T09:09:06.713Z,1.10
2023-01-15T09:11:33.080Z,0.70
2023-01-15T09:13:59.446Z,1.13
2023-01-15T09:16:27.694Z,0.80
2023-01-15T09:18:54.605Z,0.80
2023-01-15T09:21:21.061Z,0.55
2023-01-15T09:23:47.425Z,0.85
2023-01-15T09:26:30.980Z,0.60
2023-01-15T09:28:57.853Z,1.00
2023-01-15T09:31:25.290Z,0.80
2023-01-15T09:33:52.872Z,0.88
2023-01-15T09:36:29.914Z,0.60
2023-01-15T09:38:57.559Z,0.98
2023-01-15T09:41:45.055Z,0.77
2023-01-15T09:44:38.369Z,0.53
2023-01-15T09:47:13.843Z,0.90
2023-01-15T09:49:43.248Z,0.60
2023-01-15T09:52:18.654Z,0.47
2023-01-15T09:55:04.744Z,0.60
2023-01-15T09:57:33.344Z,0.47
2023-01-15T10:00:03.189Z,0.50
2023-01-15T12:00:30.332Z,1.43
2023-01-15T12:15:55.130Z,1.35
2023-01-15T12:18:50.757Z,1.30
2023-01-15T12:21:33.559Z,0.80
2023-01-15T12:24:02.907Z,0.95
2023-01-15T12:26:38.080Z,0.90
2023-01-15T12:29:11.958Z,0.98
2023-01-15T12:31:49.456Z,1.02
2023-01-15T12:34:23.418Z,1.00
2023-01-15T12:36:59.627Z,0.80
2023-01-15T12:39:42.381Z,1.00
2023-01-15T12:42:33.340Z,0.85
2023-01-15T12:45:07.617Z,1.10
2023-01-15T12:47:45.974Z,1.23
2023-01-15T12:50:45.383Z,0.90
2023-01-15T12:53:31.698Z,0.85
2023-01-15T12:56:10.186Z,0.70
2023-01-15T12:58:47.340Z,0.85
2023-01-15T13:01:17.765Z,0.70
2023-01-15T13:04:23.122Z,0.82
2023-01-15T13:06:56.763Z,0.90
2023-01-15T13:09:29.005Z,0.80
2023-01-15T13:11:55.369Z,0.80
2023-01-15T13:14:23.459Z,1.00
2023-01-15T13:17:22.567Z,0.73
2023-01-15T13:20:10.165Z,0.80
2023-01-15T13:22:53.570Z,1.38
2023-01-15T13:25:33.816Z,0.88
2023-01-15T13:28:14.180Z,0.80
2023-01-15T13:31:07.421Z,0.80
2023-01-15T13:33:45.382Z,1.63
2023-01-15T13:36:16.039Z,0.98
2023-01-15T13:38:46.915Z,1.20
2023-01-15T13:41:40.426Z,1.10
2023-01-15T13:44:17.368Z,0.98
2023-01-15T13:46:44.282Z,0.98
2023-01-15T13:49:26.748Z,1.05
2023-01-15T13:51:53.721Z,0.60
2023-01-15T13:54:28.357Z,0.50
2023-01-15T13:56:55.206Z,0.60
2023-01-15T13:59:43.464Z,0.57
2023-01-15T14:02:34.785Z,0.60
2023-01-15T14:05:32.235Z,0.57
2023-01-15T14:08:01.470Z,0.40
2023-01-15T14:10:30.555Z,0.50
2023-01-15T14:13:45.408Z,0.50
2023-01-15T14:16:19.152Z,0.63
2023-01-15T14:19:17.091Z,0.50
2023-01-15T14:22:02.146Z,0.43
2023-01-15T14:25:00.967Z,0.45
2023-01-15T14:27:33.280Z,0.38
2023-01-15T14:30:32.340Z,0.40
2023-01-15T14:33:27.915Z,0.38
2023-01-15T14:35:54.372Z,0.37
2023-01-15T14:38:26.726Z,0.30
2023-01-15T14:40:59.844Z,0.40
2023-01-15T14:43:29.950Z,0.40
2023-01-15T14:45:56.754Z,0.30
2023-01-15T14:48:29.066Z,0.53
2023-01-15T14:51:12.476Z,0.40
2023-01-15T14:53:50.173Z,0.50
2023-01-15T14:56:21.663Z,0.75
2023-01-15T14:59:01.644Z,0.60
2023-01-15T15:01:42.080Z,0.53
2023-01-15T15:04:20.962Z,0.60
2023-01-15T15:07:07.717Z,0.50
2023-01-15T15:09:42.347Z,0.50
2023-01-15T15:12:18.999Z,0.60
2023-01-15T15:14:51.151Z,0.43
2023-01-15T15:17:25.842Z,0.50
2023-01-15T15:20:02.791Z,0.70
2023-01-15T15:22:32.808Z,0.70
2023-01-15T15:25:06.636Z,0.80
2023-01-15T15:27:33.020Z,0.80
2023-01-15T15:30:04.906Z,0.73
2023-01-15T15:32:37.943Z,0.80
2023-01-15T15:35:04.687Z,0.70
2023-01-15T15:37:32.654Z,0.90
2023-01-15T15:40:05.022Z,0.90
2023-01-15T15:43:21.387Z,0.82
2023-01-15T15:46:11.743Z,0.70
2023-01-15T15:48:53.191Z,1.10
2023-01-15T15:51:40.061Z,0.60
2023-01-15T15:54:20.195Z,0.67
2023-01-15T15:56:57.976Z,0.60
2023-01-15T15:59:38.873Z,0.70
2023-01-15T16:02:34.246Z,0.90
2023-01-15T16:05:04.214Z,0.65
2023-01-15T16:07:33.859Z,0.90
2023-01-15T16:10:07.117Z,0.70
2023-01-15T16:12:36.603Z,0.60
2023-01-15T16:15:04.322Z,0.63
2023-01-15T16:17:31.229Z,1.02
2023-01-15T16:19:58.576Z,0.70
2023-01-15T16:22:25.067Z,0.70
2023-01-15T16:24:56.743Z,0.68
2023-01-15T16:27:28.498Z,0.60
2023-01-15T16:29:55.116Z,0.82
2023-01-15T16:32:31.147Z,0.90
2023-01-15T16:35:20.323Z,1.20
2023-01-15T16:37:48.941Z,0.88
2023-01-15T16:40:23.064Z,0.80
2023-01-15T16:43:02.274Z,0.70
2023-01-15T16:45:29.295Z,1.20
2023-01-15T16:48:08.686Z,0.88
2023-01-15T16:50:40.084Z,1.00
2023-01-15T16:53:26.912Z,1.10
2023-01-15T16:55:55.277Z,1.02
2023-01-15T16:58:33.997Z,1.03
2023-01-15T17:01:02.091Z,1.15
2023-01-15T17:03:31.464Z,0.93
2023-01-15T17:06:04.518Z,1.00
2023-01-15T17:08:40.117Z,1.33
2023-01-15T17:11:19.515Z,1.00
2023-01-15T17:13:45.907Z,1.33
2023-01-15T17:16:21.080Z,1.15
2023-01-15T17:18:49.316Z,0.70
2023-01-15T17:21:19.320Z,1.00
2023-01-15T17:23:46.573Z,0.80
2023-01-15T17:26:21.827Z,1.00
2023-01-15T17:28:48.924Z,1.52
2023-01-15T17:31:22.459Z,1.45
2023-01-15T17:33:50.667Z,1.25
2023-01-15T17:36:18.510Z,1.10
2023-01-15T17:38:44.953Z,1.33
2023-01-15T17:41:16.199Z,1.60
2023-01-15T17:43:42.911Z,1.35
2023-01-15T17:46:09.522Z,1.42
2023-01-15T17:48:36.376Z,1.57
2023-01-15T17:51:05.562Z,1.30
2023-01-15T17:53:35.803Z,1.30
2023-01-15T17:56:21.892Z,1.40
2023-01-15T17:59:06.584Z,1.13
2023-01-15T18:02:01.586Z,1.17
2023-01-15T18:04:54.964Z,1.63
2023-01-15T18:07:24.848Z,1.42
2023-01-15T18:09:53.075Z,1.30
2023-01-15T18:12:19.657Z,1.13
2023-01-15T18:14:46.138Z,1.30
2023-01-15T18:17:12.535Z,1.30
2023-01-15T18:19:38.956Z,1.00
2023-01-15T18:22:05.479Z,1.42
2023-01-15T18:24:31.876Z,1.30
2023-01-15T18:26:58.246Z,1.57
2023-01-15T18:29:24.627Z,1.23
2023-01-15T18:31:51.003Z,1.17
2023-01-15T18:34:17.483Z,1.20
2023-01-15T18:36:44.037Z,0.80
2023-01-15T18:39:12.887Z,1.10
2023-01-15T18:41:40.272Z,0.98
2023-01-15T18:44:29.408Z,1.20
2023-01-15T18:46:58.521Z,1.55
2023-01-15T18:49:24.886Z,1.23
2023-01-15T18:52:10.043Z,1.50
2023-01-15T18:54:37.107Z,1.70
2023-01-15T18:57:04.317Z,1.27
2023-01-15T18:59:31.303Z,1.63
2023-01-15T19:01:58.779Z,1.65
2023-01-15T19:04:25.565Z,1.63
2023-01-15T19:06:52.452Z,1.70
2023-01-15T19:09:21.186Z,1.70
2023-01-15T19:11:47.614Z,1.70
2023-01-15T19:14:32.742Z,2.00
2023-01-15T19:17:17.550Z,1.67
2023-01-15T19:19:43.948Z,1.58
2023-01-15T19:22:29.676Z,1.88
2023-01-15T19:24:56.169Z,1.15
2023-01-15T19:27:22.932Z,1.40
2023-01-15T19:29:49.458Z,1.07
2023-01-15T19:32:15.852Z,0.93
2023-01-15T19:34:42.284Z,1.20
2023-01-15T19:37:08.658Z,0.90
2023-01-15T19:39:35.082Z,0.90
2023-01-15T19:42:19.786Z,1.10
2023-01-15T19:45:04.682Z,1.10
2023-01-15T19:47:52.555Z,1.20
2023-01-15T19:50:23.064Z,0.88
2023-01-15T19:52:55.272Z,1.02
2023-01-15T19:55:23.829Z,1.10
2023-01-15T19:57:57.951Z,0.90
2023-01-15T20:00:24.575Z,1.10
2023-01-15T20:02:51.132Z,1.50
2023-01-15T20:05:19.357Z,1.50
2023-01-15T20:07:45.810Z,1.20
2023-01-15T20:10:14.764Z,1.27
2023-01-15T20:13:00.336Z,1.50
2023-01-15T20:15:27.710Z,1.60
2023-01-15T20:17:54.488Z,1.60
2023-01-15T20:20:20.948Z,1.53
2023-01-15T20:22:48.425Z,1.40
2023-01-15T20:25:15.122Z,1.67
2023-01-15T20:27:41.663Z,1.40
2023-01-15T20:30:12.556Z,2.03
2023-01-15T20:32:41.570Z,1.70
2023-01-15T20:35:11.490Z,1.60
2023-01-15T20:37:38.001Z,1.80
2023-01-15T20:40:05.640Z,1.70
2023-01-15T20:42:50.665Z,1.75
2023-01-15T20:45:17.321Z,1.70
2023-01-15T20:48:02.512Z,2.00
2023-01-15T20:50:33.474Z,1.90
2023-01-15T20:53:00.560Z,2.40
2023-01-15T20:55:45.604Z,2.75
2023-01-15T20:58:16.188Z,2.60
2023-01-15T21:00:42.645Z,2.90
2023-01-15T21:03:11.104Z,3.90
2023-01-15T21:05:37.776Z,4.85
2023-01-15T21:08:04.383Z,4.57
2023-01-15T21:10:30.747Z,5.37
2023-01-15T21:12:57.148Z,5.15
2023-01-15T21:15:23.524Z,5.25
2023-01-15T21:17:49.860Z,5.50
2023-01-15T21:20:16.651Z,5.60
2023-01-15T21:22:44.188Z,5.87
2023-01-15T21:25:11.148Z,6.13
2023-01-15T21:27:37.811Z,6.15
2023-01-15T21:30:05.529Z,6.68
2023-01-15T21:32:32.007Z,6.05
2023-01-15T21:34:58.382Z,6.60
2023-01-15T21:37:24.805Z,6.10
2023-01-15T21:39:51.166Z,6.63
2023-01-15T21:42:39.456Z,6.78
2023-01-15T21:45:07.626Z,6.93
2023-01-15T21:47:34.482Z,6.33
2023-01-15T21:50:02.502Z,6.80
2023-01-15T21:52:29.757Z,6.50
2023-01-15T21:54:56.284Z,6.90
2023-01-15T21:57:22.674Z,6.68
2023-01-15T21:59:49.047Z,7.07
2023-01-15T22:02:18.820Z,5.97
2023-01-15T22:04:45.888Z,6.30
2023-01-15T22:07:12.333Z,5.70
2023-01-15T22:09:38.781Z,5.63
2023-01-15T22:12:05.712Z,5.37
2023-01-15T22:14:33.299Z,5.18
2023-01-15T22:17:03.171Z,5.13
2023-01-15T22:19:31.474Z,5.18
2023-01-15T22:22:08.261Z,5.07
2023-01-15T22:24:36.582Z,5.70
2023-01-15T22:27:06.241Z,5.30
2023-01-15T22:29:38.181Z,5.10
2023-01-15T22:32:05.881Z,5.00
2023-01-15T22:34:32.311Z,5.00
2023-01-15T22:36:58.926Z,4.17
2023-01-15T22:39:26.604Z,4.38
2023-01-15T22:42:12.564Z,4.13
2023-01-15T22:44:38.972Z,4.60
2023-01-15T22:47:06.039Z,4.60
2023-01-15T22:49:32.494Z,4.60
2023-01-15T22:51:58.859Z,4.18
2023-01-15T22:54:25.224Z,3.83
2023-01-15T22:56:51.702Z,4.45
2023-01-15T22:59:19.105Z,4.20
2023-01-15T23:01:45.939Z,4.07
2023-01-15T23:04:23.672Z,3.88
2023-01-15T23:06:51.764Z,4.38
2023-01-15T23:09:19.472Z,3.90
2023-01-15T23:11:46.274Z,3.40
2023-01-15T23:14:17.043Z,3.20
2023-01-15T23:16:43.917Z,3.40
2023-01-15T23:19:12.024Z,3.10
2023-01-15T23:21:39.964Z,3.25
2023-01-15T23:24:06.511Z,3.53
2023-01-15T23:26:33.975Z,3.10
2023-01-15T23:29:00.687Z,3.05
2023-01-15T23:31:28.065Z,3.50
2023-01-15T23:33:54.457Z,3.05
2023-01-15T23:36:21.057Z,3.00
2023-01-15T23:38:47.582Z,2.80
2023-01-15T23:41:19.084Z,2.83
2023-01-15T23:44:04.749Z,2.63
2023-01-15T23:46:37.352Z,3.30
2023-01-15T23:49:09.455Z,3.20
2023-01-15T23:51:37.492Z,3.47
2023-01-15T23:54:05.393Z,3.58
2023-01-15T23:56:33.248Z,3.05
2023-01-15T23:59:00.376Z,3.03
